createdAt,value
2022-10-21T00:01:35.084Z,17.00
2022-10-21T00:04:06.159Z,16.38
2022-10-21T00:06:35.226Z,17.55
2022-10-21T00:09:04.477Z,18.23
2022-10-21T00:11:33.652Z,17.63
2022-10-21T00:14:02.751Z,17.27
2022-10-21T00:16:31.884Z,16.27
2022-10-21T00:19:01.057Z,16.38
2022-10-21T00:21:30.152Z,15.93
2022-10-21T00:23:59.284Z,16.50
2022-10-21T00:26:28.396Z,14.00
2022-10-21T00:29:01.229Z,16.90
2022-10-21T00:31:31.555Z,13.82
2022-10-21T00:34:00.643Z,13.07
2022-10-21T00:36:29.718Z,12.95
2022-10-21T00:38:59.170Z,11.60
2022-10-21T00:41:28.297Z,13.85
2022-10-21T00:44:03.612Z,14.20
2022-10-21T00:46:42.045Z,13.25
2022-10-21T00:49:43.433Z,12.40
2022-10-21T00:52:21.720Z,12.38
2022-10-21T00:54:56.482Z,13.80
2022-10-21T00:57:28.185Z,11.77
2022-10-21T01:00:03.795Z,10.27
2022-10-21T01:02:32.948Z,11.18
2022-10-21T01:05:04.832Z,7.60
2022-10-21T01:07:37.621Z,8.40
2022-10-21T01:10:10.122Z,6.68
2022-10-21T01:13:06.725Z,6.38
2022-10-21T01:16:04.399Z,10.82
2022-10-21T01:19:03.588Z,7.70
2022-10-21T01:21:40.833Z,5.80
2022-10-21T01:25:01.266Z,8.95
2022-10-21T01:28:08.971Z,6.85
2022-10-21T01:30:46.318Z,7.63
2022-10-21T01:33:27.497Z,5.65
2022-10-21T01:36:38.842Z,6.13
2022-10-21T01:39:47.392Z,5.10
2022-10-21T01:42:52.634Z,4.22
2022-10-21T01:45:48.954Z,4.55
2022-10-21T01:48:29.180Z,5.45
2022-10-21T01:51:08.765Z,7.35
2022-10-21T01:54:12.414Z,5.35
2022-10-21T01:56:46.953Z,5.13
2022-10-21T01:59:18.868Z,5.85
2022-10-21T02:01:50.300Z,3.55
2022-10-21T02:04:21.932Z,4.40
2022-10-21T02:06:51.332Z,4.15
2022-10-21T02:09:20.416Z,4.40
2022-10-21T02:11:53.205Z,4.70
2022-10-21T02:14:42.541Z,2.30
2022-10-21T02:17:17.471Z,3.95
2022-10-21T02:19:49.739Z,2.03
2022-10-21T02:22:26.712Z,4.25
2022-10-21T02:25:10.115Z,2.90
2022-10-21T02:27:39.407Z,1.88
2022-10-21T02:30:12.331Z,3.28
2022-10-21T02:33:00.389Z,3.17
2022-10-21T02:35:56.275Z,2.38
2022-10-21T02:38:30.130Z,3.58
2022-10-21T02:41:12.955Z,2.20
2022-10-21T02:44:01.297Z,2.40
2022-10-21T02:49:13.856Z,1.40
2022-10-21T02:51:44.572Z,1.67
2022-10-21T02:54:14.259Z,2.88
2022-10-21T02:56:43.477Z,2.30
2022-10-21T02:59:12.820Z,3.33
2022-10-21T03:01:41.964Z,2.30
2022-10-21T03:04:11.295Z,3.28
2022-10-21T03:06:40.490Z,2.05
2022-10-21T03:09:09.649Z,2.45
2022-10-21T03:11:38.840Z,2.03
2022-10-21T03:14:08.107Z,1.85
2022-10-21T03:16:37.329Z,1.58
2022-10-21T03:19:06.595Z,3.17
2022-10-21T03:21:35.855Z,1.73
2022-10-21T03:24:10.893Z,2.80
2022-10-21T03:26:48.978Z,2.80
2022-10-21T03:29:18.107Z,2.17
2022-10-21T03:31:47.217Z,2.17
2022-10-21T03:34:16.480Z,1.98
2022-10-21T03:36:45.734Z,1.40
2022-10-21T03:39:15.222Z,1.65
2022-10-21T03:41:44.451Z,1.55
2022-10-21T03:44:13.587Z,2.38
2022-10-21T03:46:43.268Z,2.38
2022-10-21T03:49:20.037Z,1.45
2022-10-21T03:51:51.507Z,1.77
2022-10-21T03:54:21.297Z,2.10
2022-10-21T03:56:50.475Z,1.55
2022-10-21T03:59:19.657Z,1.52
2022-10-21T04:01:48.878Z,2.45
2022-10-21T04:04:18.067Z,2.42
2022-10-21T04:06:47.276Z,2.53
2022-10-21T04:09:16.519Z,1.10
2022-10-21T04:11:45.734Z,1.63
2022-10-21T04:14:15.575Z,1.75
2022-10-21T04:16:46.090Z,2.35
2022-10-21T04:19:22.243Z,1.60
2022-10-21T04:21:52.204Z,1.30
2022-10-21T04:24:21.483Z,1.77
2022-10-21T04:26:50.616Z,0.98
2022-10-21T04:29:19.797Z,2.13
2022-10-21T04:31:49.690Z,1.13
2022-10-21T04:34:18.928Z,0.65
2022-10-21T04:36:48.096Z,0.80
2022-10-21T04:39:17.417Z,1.00
2022-10-21T04:41:48.764Z,1.15
2022-10-21T04:44:18.111Z,1.17
2022-10-21T04:46:47.216Z,0.77
2022-10-21T04:49:16.405Z,1.10
2022-10-21T04:51:45.587Z,1.02
2022-10-21T04:54:14.925Z,0.70
2022-10-21T04:56:44.547Z,0.70
2022-10-21T04:59:13.972Z,0.63
2022-10-21T05:01:43.715Z,1.60
2022-10-21T05:04:12.907Z,0.90
2022-10-21T05:06:42.502Z,0.77
2022-10-21T05:09:11.717Z,0.45
2022-10-21T05:11:40.890Z,0.70
2022-10-21T05:14:10.067Z,0.52
2022-10-21T05:16:39.564Z,1.33
2022-10-21T05:19:08.880Z,0.63
2022-10-21T05:24:12.029Z,1.75
2022-10-21T05:26:41.189Z,0.70
2022-10-21T05:29:10.374Z,0.90
2022-10-21T05:31:39.494Z,1.10
2022-10-21T05:34:08.653Z,0.80
2022-10-21T05:36:37.887Z,0.55
2022-10-21T05:39:09.821Z,1.02
2022-10-21T05:41:41.098Z,0.70
2022-10-21T05:44:13.335Z,0.57
2022-10-21T05:46:42.833Z,1.00
2022-10-21T05:49:12.100Z,0.95
2022-10-21T05:51:41.354Z,0.50
2022-10-21T05:54:10.451Z,0.50
2022-10-21T05:56:39.766Z,0.63
2022-10-21T05:59:10.205Z,0.60
2022-10-21T06:01:40.627Z,0.70
2022-10-21T06:04:10.321Z,1.08
2022-10-21T06:06:39.429Z,0.68
2022-10-21T06:09:08.633Z,1.13
2022-10-21T06:11:37.834Z,0.73
2022-10-21T06:14:06.973Z,2.38
2022-10-21T06:16:36.279Z,1.52
2022-10-21T06:19:05.974Z,33.58
2022-10-21T06:21:35.163Z,1.50
2022-10-21T06:24:04.366Z,1.33
2022-10-21T06:26:36.175Z,0.80
2022-10-21T06:29:06.335Z,0.70
2022-10-21T06:31:35.449Z,1.20
2022-10-21T06:34:04.741Z,1.55
2022-10-21T06:36:33.996Z,1.10
2022-10-21T06:39:03.089Z,0.40
2022-10-21T06:41:32.679Z,1.20
2022-10-21T06:44:01.956Z,0.50
2022-10-21T06:46:31.106Z,0.30
2022-10-21T06:49:00.264Z,1.00
2022-10-21T06:51:30.405Z,1.70
2022-10-21T06:54:01.340Z,1.92
2022-10-21T06:56:31.888Z,1.55
2022-10-21T06:59:01.196Z,0.73
2022-10-21T07:01:48.370Z,1.17
2022-10-21T07:04:26.820Z,0.50
2022-10-21T07:06:56.436Z,1.10
2022-10-21T07:09:25.715Z,1.33
2022-10-21T07:11:56.547Z,0.75
2022-10-21T07:14:26.548Z,9.60
2022-10-21T07:16:55.804Z,1.13
2022-10-21T07:19:24.976Z,1.27
2022-10-21T07:21:54.685Z,2.75
2022-10-21T07:24:23.895Z,0.90
2022-10-21T07:26:53.363Z,1.90
2022-10-21T07:29:23.580Z,0.70
2022-10-21T07:31:52.952Z,1.30
2022-10-21T07:34:22.511Z,1.25
2022-10-21T07:36:53.866Z,0.40
2022-10-21T07:39:28.610Z,0.65
2022-10-21T07:42:00.262Z,0.95
2022-10-21T07:44:29.464Z,1.20
2022-10-21T07:46:58.775Z,1.13
2022-10-21T07:49:28.107Z,1.13
2022-10-21T07:51:57.825Z,1.38
2022-10-21T07:54:27.185Z,1.48
2022-10-21T07:56:56.597Z,0.60
2022-10-21T07:59:25.935Z,1.52
2022-10-21T08:01:55.230Z,1.45
2022-10-21T08:04:30.628Z,0.50
2022-10-21T08:07:01.076Z,0.98
2022-10-21T08:09:30.400Z,0.70
2022-10-21T08:11:59.895Z,0.95
2022-10-21T08:14:29.108Z,0.70
2022-10-21T08:16:58.326Z,0.70
2022-10-21T08:19:30.560Z,0.88
2022-10-21T08:22:00.517Z,1.15
2022-10-21T08:24:30.562Z,0.77
2022-10-21T08:26:59.769Z,0.60
2022-10-21T08:29:28.945Z,1.10
2022-10-21T08:31:58.578Z,1.20
2022-10-21T08:34:27.787Z,0.80
2022-10-21T08:36:56.947Z,0.70
2022-10-21T08:39:26.266Z,0.70
2022-10-21T08:42:18.285Z,0.60
2022-10-21T08:45:08.428Z,2.63
2022-10-21T08:47:51.869Z,1.08
2022-10-21T08:50:39.979Z,0.60
2022-10-21T08:53:40.704Z,1.50
2022-10-21T08:56:19.899Z,1.42
2022-10-21T08:58:53.578Z,1.40
2022-10-21T09:01:52.509Z,1.90
2022-10-21T09:04:46.077Z,4.80
2022-10-21T09:07:23.539Z,2.38
2022-10-21T09:10:25.974Z,1.55
2022-10-21T09:13:33.185Z,1.98
2022-10-21T09:17:01.589Z,3.80
2022-10-21T09:20:00.575Z,2.22
2022-10-21T09:23:15.209Z,1.90
2022-10-21T09:26:29.450Z,2.25
2022-10-21T09:29:06.472Z,2.65
2022-10-21T09:31:35.579Z,2.80
2022-10-21T09:34:16.536Z,1.30
2022-10-21T09:36:49.618Z,2.05
2022-10-21T09:39:46.928Z,1.60
2022-10-21T09:42:29.557Z,1.83
2022-10-21T09:45:07.705Z,0.70
2022-10-21T09:47:37.475Z,1.63
2022-10-21T09:50:08.404Z,1.35
2022-10-21T09:52:39.708Z,2.00
2022-10-21T09:55:16.900Z,0.85
2022-10-21T09:58:05.145Z,1.33
2022-10-21T10:00:51.049Z,0.93
2022-10-21T10:03:52.194Z,1.50
2022-10-21T10:06:43.393Z,2.80
2022-10-21T10:09:33.920Z,1.00
2022-10-21T10:12:07.802Z,1.25
2022-10-21T10:14:43.898Z,1.40
2022-10-21T10:17:40.806Z,2.50
2022-10-21T10:20:30.579Z,1.92
2022-10-21T10:23:02.748Z,1.95
2022-10-21T10:25:39.801Z,1.55
2022-10-21T10:28:11.684Z,2.20
2022-10-21T10:30:43.743Z,2.30
2022-10-21T10:33:32.031Z,2.65
2022-10-21T10:36:09.582Z,3.20
2022-10-21T10:38:53.654Z,2.65
2022-10-21T10:41:35.778Z,3.40
2022-10-21T10:44:22.315Z,13.75
2022-10-21T10:47:00.609Z,19.38
2022-10-21T10:49:40.709Z,16.02
2022-10-21T10:52:12.545Z,11.20
2022-10-21T10:54:44.080Z,8.15
2022-10-21T10:57:39.077Z,9.18
2022-10-21T11:00:24.896Z,5.25
2022-10-21T11:03:08.261Z,4.68
2022-10-21T11:05:54.901Z,3.13
2022-10-21T11:08:36.127Z,7.43
2022-10-21T11:11:29.870Z,6.55
2022-10-21T11:17:14.220Z,6.82
2022-10-21T11:20:10.387Z,7.10
2022-10-21T11:22:48.156Z,6.05
2022-10-21T11:25:19.911Z,5.60
2022-10-21T11:28:42.048Z,7.68
2022-10-21T11:31:54.001Z,4.88
2022-10-21T11:35:10.357Z,4.22
2022-10-21T11:38:06.576Z,3.80
2022-10-21T11:40:51.348Z,3.67
2022-10-21T11:43:38.764Z,3.83
2022-10-21T11:46:25.097Z,3.85
2022-10-21T11:49:13.007Z,3.75
2022-10-21T11:52:10.625Z,4.10
2022-10-21T11:55:05.678Z,6.22
2022-10-21T11:58:31.318Z,5.90
2022-10-21T12:01:25.123Z,5.47
2022-10-21T12:04:11.581Z,5.30
2022-10-21T12:06:50.869Z,6.25
2022-10-21T12:10:02.572Z,6.57
2022-10-21T12:12:41.165Z,8.50
2022-10-21T12:15:36.871Z,10.20
2022-10-21T12:18:07.718Z,11.68
2022-10-21T12:20:37.150Z,10.13
2022-10-21T12:23:08.975Z,10.13
2022-10-21T12:26:05.741Z,9.77
2022-10-21T12:29:13.704Z,10.73
2022-10-21T12:34:27.536Z,12.93
2022-10-21T12:36:58.850Z,14.05
2022-10-21T12:39:36.823Z,14.82
2022-10-21T12:42:31.267Z,16.35
2022-10-21T12:45:01.389Z,30.85
2022-10-21T12:47:40.804Z,33.55
2022-10-21T12:50:23.259Z,27.70
2022-10-21T12:53:34.268Z,24.85
2022-10-21T12:56:05.784Z,24.83
2022-10-21T12:58:34.989Z,23.27
2022-10-21T13:01:05.603Z,22.35
2022-10-21T13:03:56.127Z,23.58
2022-10-21T13:06:57.977Z,22.92
2022-10-21T13:09:54.929Z,26.90
2022-10-21T13:12:26.966Z,25.95
2022-10-21T13:15:03.249Z,23.02
2022-10-21T13:17:49.728Z,23.00
2022-10-21T13:20:21.644Z,23.77
2022-10-21T13:23:03.370Z,21.60
2022-10-21T13:25:37.292Z,20.95
2022-10-21T13:28:14.355Z,20.08
2022-10-21T13:31:04.792Z,25.25
2022-10-21T13:33:39.323Z,20.23
2022-10-21T13:36:15.390Z,19.33
2022-10-21T13:38:56.498Z,21.75
2022-10-21T13:41:32.038Z,19.30
2022-10-21T13:44:08.254Z,19.58
2022-10-21T13:46:43.588Z,20.20
2022-10-21T13:49:34.965Z,18.67
2022-10-21T13:52:05.472Z,17.80
2022-10-21T13:54:37.880Z,17.60
2022-10-21T13:57:10.711Z,16.52
2022-10-21T13:59:39.997Z,15.70
2022-10-21T14:02:23.482Z,17.27
2022-10-21T14:04:52.656Z,16.70
2022-10-21T14:07:22.946Z,16.30
2022-10-21T14:09:58.636Z,16.83
2022-10-21T14:12:49.180Z,17.92
2022-10-21T14:15:29.543Z,18.60
2022-10-21T14:18:01.376Z,17.02
2022-10-21T14:20:38.655Z,18.55
2022-10-21T14:23:19.844Z,19.90
2022-10-21T14:25:56.960Z,18.27
2022-10-21T14:28:26.265Z,14.23
2022-10-21T14:30:55.716Z,14.40
2022-10-21T14:33:31.305Z,14.57
2022-10-21T14:36:24.256Z,16.23
2022-10-21T14:38:55.363Z,17.05
2022-10-21T14:41:39.356Z,18.30
2022-10-21T14:44:31.822Z,15.40
2022-10-21T14:47:01.713Z,16.92
2022-10-21T14:49:48.529Z,16.83
2022-10-21T14:52:46.167Z,15.55
2022-10-21T14:55:20.770Z,15.85
2022-10-21T14:57:54.968Z,16.45
2022-10-21T15:00:42.611Z,15.20
2022-10-21T15:03:14.000Z,17.52
2022-10-21T15:05:49.371Z,15.77
2022-10-21T15:08:21.688Z,15.00
2022-10-21T15:11:03.026Z,16.05
2022-10-21T15:13:33.301Z,12.93
2022-10-21T15:16:05.742Z,7.63
2022-10-21T15:18:44.172Z,7.10
2022-10-21T15:21:45.387Z,5.65
2022-10-21T15:24:27.944Z,5.22
2022-10-21T15:27:00.662Z,6.28
2022-10-21T15:29:46.484Z,13.20
2022-10-21T15:32:20.595Z,6.18
2022-10-21T15:34:54.305Z,6.03
2022-10-21T15:37:23.543Z,5.03
2022-10-21T15:39:52.643Z,6.40
2022-10-21T15:42:22.602Z,5.53
2022-10-21T15:44:52.613Z,6.03
2022-10-21T15:47:21.760Z,9.63
2022-10-21T15:49:50.956Z,12.00
2022-10-21T15:52:20.105Z,12.30
2022-10-21T15:54:49.278Z,13.60
2022-10-21T15:57:23.639Z,11.18
2022-10-21T15:59:52.818Z,11.45
2022-10-21T16:02:21.944Z,12.85
2022-10-21T16:04:54.040Z,11.95
2022-10-21T16:07:30.410Z,11.55
2022-10-21T16:09:59.679Z,10.90
2022-10-21T16:12:29.122Z,13.35
2022-10-21T16:14:58.218Z,12.25
2022-10-21T16:17:29.544Z,12.20
2022-10-21T16:19:58.755Z,11.70
2022-10-21T16:22:28.984Z,12.40
2022-10-21T16:24:58.101Z,12.85
2022-10-21T16:27:56.777Z,13.90
2022-10-21T16:30:33.971Z,12.50
2022-10-21T16:33:03.136Z,13.18
2022-10-21T16:35:32.550Z,13.30
2022-10-21T16:38:01.726Z,12.95
2022-10-21T16:40:35.941Z,12.75
2022-10-21T16:43:05.539Z,12.45
2022-10-21T16:45:35.203Z,12.57
2022-10-21T16:48:07.045Z,11.88
2022-10-21T16:50:46.898Z,11.75
2022-10-21T16:53:19.453Z,11.82
2022-10-21T16:55:48.608Z,12.55
2022-10-21T16:58:17.770Z,12.95
2022-10-21T17:00:49.733Z,11.77
2022-10-21T17:03:18.938Z,11.30
2022-10-21T17:05:48.114Z,11.90
2022-10-21T17:08:17.844Z,10.88
2022-10-21T17:10:47.990Z,12.02
2022-10-21T17:13:17.312Z,10.65
2022-10-21T17:15:47.134Z,11.90
2022-10-21T17:18:16.444Z,11.27
2022-10-21T17:20:45.888Z,10.70
2022-10-21T17:23:15.046Z,10.82
2022-10-21T17:25:44.249Z,10.43
2022-10-21T17:28:13.441Z,11.07
2022-10-21T17:30:42.869Z,10.20
2022-10-21T17:33:14.455Z,12.15
2022-10-21T17:35:43.908Z,10.75
2022-10-21T17:38:14.360Z,9.98
2022-10-21T17:40:44.410Z,11.63
2022-10-21T17:43:13.539Z,9.90
2022-10-21T17:45:42.753Z,10.07
2022-10-21T17:48:11.992Z,10.75
2022-10-21T17:50:41.142Z,11.32
2022-10-21T17:53:10.380Z,9.90
2022-10-21T17:55:39.512Z,8.77
2022-10-21T17:58:08.664Z,8.63
2022-10-21T18:00:43.797Z,8.88
2022-10-21T18:03:14.602Z,8.82
2022-10-21T18:05:43.673Z,9.85
2022-10-21T18:08:12.737Z,9.52
2022-10-21T18:10:42.008Z,9.98
2022-10-21T18:13:11.098Z,8.95
2022-10-21T18:15:40.340Z,9.43
2022-10-21T18:18:09.471Z,9.07
2022-10-21T18:20:38.916Z,10.52
2022-10-21T18:23:08.040Z,9.68
2022-10-21T18:25:38.968Z,9.55
2022-10-21T18:28:09.304Z,9.93
2022-10-21T18:30:47.262Z,10.70
2022-10-21T18:33:16.704Z,11.15
2022-10-21T18:35:45.789Z,11.60
2022-10-21T18:38:15.071Z,11.23
2022-10-21T18:40:56.314Z,11.30
2022-10-21T18:43:31.571Z,10.65
2022-10-21T18:46:00.755Z,11.40
2022-10-21T18:48:30.278Z,9.95
2022-10-21T18:51:05.709Z,10.15
2022-10-21T18:53:37.179Z,10.25
2022-10-21T18:56:14.328Z,9.93
2022-10-21T18:58:44.815Z,10.02
2022-10-21T19:01:17.933Z,10.93
2022-10-21T19:03:47.373Z,10.20
2022-10-21T19:06:42.399Z,11.38
2022-10-21T19:09:17.429Z,13.38
2022-10-21T19:11:47.682Z,13.30
2022-10-21T19:14:18.396Z,13.07
2022-10-21T19:16:49.759Z,12.80
2022-10-21T19:19:19.580Z,11.48
2022-10-21T19:21:48.778Z,11.50
2022-10-21T19:24:18.012Z,9.68
2022-10-21T19:26:52.159Z,10.02
2022-10-21T19:29:22.901Z,9.43
2022-10-21T19:31:52.463Z,9.10
2022-10-21T19:34:29.543Z,9.40
2022-10-21T19:36:58.704Z,9.45
2022-10-21T19:39:27.941Z,9.20
2022-10-21T19:41:57.143Z,8.48
2022-10-21T19:44:26.395Z,8.20
2022-10-21T19:46:55.556Z,7.75
2022-10-21T19:49:24.771Z,9.00
2022-10-21T19:51:53.998Z,9.38
2022-10-21T19:54:23.162Z,8.00
2022-10-21T19:56:53.403Z,8.60
2022-10-21T19:59:23.438Z,8.38
2022-10-21T20:01:52.592Z,8.32
2022-10-21T20:04:21.688Z,9.15
2022-10-21T20:06:50.802Z,8.30
2022-10-21T20:09:19.896Z,9.88
2022-10-21T20:11:49.038Z,9.38
2022-10-21T20:14:18.271Z,9.43
2022-10-21T20:16:53.541Z,7.97
2022-10-21T20:19:22.702Z,8.60
2022-10-21T20:21:52.057Z,8.27
2022-10-21T20:24:21.130Z,7.60
2022-10-21T20:26:52.288Z,8.15
2022-10-21T20:29:21.481Z,8.40
2022-10-21T20:31:50.662Z,9.23
2022-10-21T20:34:19.806Z,9.82
2022-10-21T20:36:48.931Z,9.25
2022-10-21T20:39:18.396Z,8.95
2022-10-21T20:41:47.839Z,8.65
2022-10-21T20:44:18.379Z,8.93
2022-10-21T20:46:48.248Z,8.63
2022-10-21T20:49:17.519Z,8.88
2022-10-21T20:51:46.756Z,9.60
2022-10-21T20:54:21.296Z,8.15
2022-10-21T20:56:50.976Z,8.02
2022-10-21T20:59:21.048Z,8.30
2022-10-21T21:01:50.839Z,8.20
2022-10-21T21:04:22.035Z,8.43
2022-10-21T21:06:52.481Z,8.63
2022-10-21T21:09:57.814Z,8.57
2022-10-21T21:12:12.386Z,7.80
2022-10-21T21:14:41.909Z,8.20
2022-10-21T21:17:11.039Z,8.35
2022-10-21T21:19:41.495Z,9.20
2022-10-21T21:22:10.628Z,9.73
2022-10-21T21:24:39.675Z,11.30
2022-10-21T21:27:08.933Z,13.35
2022-10-21T21:29:38.047Z,12.77
2022-10-21T21:32:08.372Z,10.32
2022-10-21T21:34:37.503Z,9.98
2022-10-21T21:37:06.609Z,10.20
2022-10-21T21:39:35.761Z,8.30
2022-10-21T21:42:06.080Z,8.98
2022-10-21T21:44:35.447Z,9.80
2022-10-21T21:47:04.531Z,10.38
2022-10-21T21:49:33.649Z,10.48
2022-10-21T21:52:02.868Z,9.95
2022-10-21T21:54:31.948Z,13.10
2022-10-21T21:57:27.285Z,8.50
2022-10-21T21:59:50.055Z,8.32
2022-10-21T22:02:19.078Z,8.02
2022-10-21T22:04:48.320Z,7.20
2022-10-21T22:07:17.472Z,7.72
2022-10-21T22:09:46.567Z,7.05
2022-10-21T22:12:17.027Z,7.32
2022-10-21T22:14:46.989Z,9.45
2022-10-21T22:17:16.168Z,7.78
2022-10-21T22:19:45.309Z,8.98
2022-10-21T22:22:14.449Z,8.15
2022-10-21T22:24:43.733Z,8.52
2022-10-21T22:27:13.012Z,8.40
2022-10-21T22:29:42.092Z,8.02
2022-10-21T22:32:13.652Z,8.00
2022-10-21T22:34:42.667Z,9.63
2022-10-21T22:37:11.766Z,7.32
2022-10-21T22:39:40.868Z,6.78
2022-10-21T22:42:10.675Z,6.75
2022-10-21T22:44:39.782Z,7.50
2022-10-21T22:47:09.263Z,7.60
2022-10-21T22:49:38.359Z,6.15
2022-10-21T22:52:07.700Z,6.93
2022-10-21T22:54:49.109Z,7.28
2022-10-21T22:57:19.132Z,6.38
2022-10-21T22:59:52.818Z,6.60
2022-10-21T23:02:22.734Z,7.05
2022-10-21T23:04:51.837Z,8.98
2022-10-21T23:07:20.886Z,6.88
2022-10-21T23:09:52.347Z,6.57
2022-10-21T23:12:21.475Z,7.63
2022-10-21T23:14:50.623Z,6.65
2022-10-21T23:17:19.965Z,8.63
2022-10-21T23:19:49.060Z,8.70
2022-10-21T23:22:18.207Z,7.75
2022-10-21T23:24:48.105Z,6.40
2022-10-21T23:27:17.526Z,6.07
2022-10-21T23:29:46.672Z,7.43
2022-10-21T23:32:15.969Z,8.55
2022-10-21T23:34:45.058Z,8.65
2022-10-21T23:37:14.214Z,8.85
2022-10-21T23:39:43.330Z,10.95
2022-10-21T23:42:12.488Z,9.18
2022-10-21T23:44:41.573Z,8.88
2022-10-21T23:47:10.771Z,10.80
2022-10-21T23:49:39.899Z,9.50
2022-10-21T23:52:09.010Z,10.30
2022-10-21T23:54:38.268Z,11.85
2022-10-21T23:57:07.393Z,9.85
2022-10-21T23:59:37.554Z,9.93
